Time;durP1;ratioP1;P1;durP2;ratioP2;P2;SDS_P1;SDS_P2;PMS_P1;PMS_P2;Temp;Humidity;BMP_temperature;BMP_pressure;BME280_temperature;BME280_humidity;BME280_pressure;Samples;Min_cycle;Max_cycle;Signal;HPM_P1;HPM_P2
2023/05/22 00:01:48;;;;;;;18.10;9.68;;;;;;;20.10;57.31;101419.84;6193976;23;20108;-63
2023/05/22 00:04:20;;;;;;;18.42;10.38;;;;;;;20.05;57.34;101410.81;6194475;23;20035;-63
2023/05/22 00:06:49;;;;;;;15.82;10.23;;;;;;;20.05;57.52;101413.56;6194291;23;20088;-63
2023/05/22 00:09:16;;;;;;;14.30;10.43;;;;;;;20.01;57.73;101409.72;6194791;23;20185;-63
2023/05/22 00:11:44;;;;;;;15.80;9.65;;;;;;;19.98;57.73;101408.38;6193186;23;20036;-63
2023/05/22 00:14:13;;;;;;;16.73;11.25;;;;;;;19.94;57.89;101409.19;6189681;23;20029;-63
2023/05/22 00:16:41;;;;;;;17.13;10.82;;;;;;;19.92;57.94;101405.91;6189478;23;20032;-62
2023/05/22 00:19:12;;;;;;;16.92;10.80;;;;;;;19.90;57.93;101397.16;6191501;23;20056;-63
2023/05/22 00:21:40;;;;;;;16.02;11.18;;;;;;;19.84;58.12;101399.06;6190682;23;20021;-63
2023/05/22 00:24:09;;;;;;;15.73;10.77;;;;;;;19.82;58.26;101391.16;6190968;23;20039;-63
2023/05/22 00:26:36;;;;;;;14.05;9.45;;;;;;;19.81;58.15;101408.59;6189408;23;20426;-63
2023/05/22 00:29:05;;;;;;;15.95;9.25;;;;;;;19.83;57.77;101409.16;6190779;23;20077;-63
2023/05/22 00:31:33;;;;;;;12.95;8.65;;;;;;;19.82;57.20;101399.34;6191309;23;20025;-63
2023/05/22 00:34:01;;;;;;;16.30;9.70;;;;;;;19.82;58.01;101403.97;6190897;23;20025;-63
2023/05/22 00:36:30;;;;;;;15.23;8.85;;;;;;;19.80;57.90;101400.69;6191608;23;20021;-63
2023/05/22 00:38:58;;;;;;;16.00;10.27;;;;;;;19.79;57.77;101397.16;6190185;23;20060;-63
2023/05/22 00:41:26;;;;;;;14.63;10.40;;;;;;;19.73;58.46;101394.69;6190420;23;20079;-64
2023/05/22 00:43:53;;;;;;;15.85;11.60;;;;;;;19.68;58.59;101395.47;6189927;23;20117;-62
2023/05/22 00:46:23;;;;;;;19.27;12.30;;;;;;;19.64;58.74;101391.66;6189678;23;20723;-63
2023/05/22 00:48:51;;;;;;;17.95;10.43;;;;;;;19.55;58.45;101376.09;6189059;23;20052;-62
2023/05/22 00:51:20;;;;;;;18.90;9.70;;;;;;;19.64;57.79;101390.84;6189701;23;21309;-63
2023/05/22 00:53:50;;;;;;;18.10;10.80;;;;;;;19.60;57.98;101385.09;6191520;23;20056;-63
2023/05/22 00:56:18;;;;;;;20.67;10.40;;;;;;;19.58;58.28;101392.72;6193043;23;20071;-63
2023/05/22 00:58:46;;;;;;;16.05;10.35;;;;;;;19.59;58.15;101390.81;6193077;23;20048;-63
2023/05/22 01:01:16;;;;;;;15.25;10.27;;;;;;;19.59;57.88;101393.56;6190868;23;20021;-63
2023/05/22 01:03:45;;;;;;;17.35;10.90;;;;;;;19.55;58.54;101400.63;6193047;23;20021;-62
2023/05/22 01:06:16;;;;;;;15.55;10.68;;;;;;;19.54;58.37;101397.09;6193105;23;20044;-63
2023/05/22 01:08:45;;;;;;;16.83;10.38;;;;;;;19.55;58.24;101387.00;6193368;23;20293;-63
2023/05/22 01:11:17;;;;;;;16.90;10.07;;;;;;;19.54;58.26;101394.34;6192510;23;20044;-63
2023/05/22 01:13:55;;;;;;;16.95;9.95;;;;;;;19.54;58.08;101393.53;6191187;23;20087;-63
2023/05/22 01:16:29;;;;;;;16.08;10.55;;;;;;;19.50;58.62;101391.31;6191857;23;20052;-63
2023/05/22 01:19:05;;;;;;;18.05;10.75;;;;;;;19.48;58.30;101387.22;6193230;23;20025;-63
2023/05/22 01:21:44;;;;;;;18.15;11.00;;;;;;;19.44;58.57;101392.38;6193266;23;20359;-63
2023/05/22 01:24:59;;;;;;;20.48;10.57;;;;;;;19.40;58.98;101390.47;6193241;23;22387;-63
2023/05/22 01:28:06;;;;;;;19.55;11.02;;;;;;;19.37;58.98;101391.00;6043619;23;20092;-63
2023/05/22 01:30:48;;;;;;;15.65;10.45;;;;;;;19.30;58.85;101374.88;6027846;23;20035;-64
2023/05/22 01:33:17;;;;;;;17.42;10.75;;;;;;;19.33;58.81;101384.44;6042045;23;20023;-64
2023/05/22 01:35:52;;;;;;;16.70;11.27;;;;;;;19.31;58.86;101389.34;6043746;23;20031;-63
2023/05/22 01:38:21;;;;;;;18.30;10.80;;;;;;;19.28;58.99;101384.41;6043192;23;20033;-63
2023/05/22 01:40:50;;;;;;;16.42;10.50;;;;;;;19.27;59.07;101385.50;6043839;23;20093;-63
2023/05/22 01:43:18;;;;;;;17.48;10.93;;;;;;;19.25;58.99;101385.78;6041742;23;20144;-63
2023/05/22 01:45:47;;;;;;;16.23;10.27;;;;;;;19.25;58.81;101383.03;6040686;23;20027;-63
2023/05/22 01:48:15;;;;;;;19.67;11.23;;;;;;;19.25;59.02;101388.50;6041580;23;20027;-63
2023/05/22 01:50:44;;;;;;;15.02;10.23;;;;;;;19.24;59.06;101386.03;6041930;23;20096;-63
2023/05/22 01:53:19;;;;;;;17.77;10.13;;;;;;;19.22;58.84;101383.56;6042648;23;20082;-63
2023/05/22 01:55:54;;;;;;;16.25;10.27;;;;;;;19.22;58.83;101389.03;6043480;23;20027;-61
2023/05/22 01:58:30;;;;;;;15.50;8.88;;;;;;;19.22;58.46;101386.31;6043841;23;20118;-62
2023/05/22 02:01:02;;;;;;;19.50;10.75;;;;;;;19.24;58.44;101383.31;6089748;23;20025;-62
2023/05/22 02:03:31;;;;;;;16.58;9.50;;;;;;;19.22;58.28;101380.03;6193671;23;20036;-63
2023/05/22 02:06:04;;;;;;;16.33;9.75;;;;;;;19.24;58.29;101377.84;6192902;23;20493;-63
2023/05/22 02:08:31;;;;;;;15.10;9.73;;;;;;;19.23;58.37;101376.22;6192846;23;20064;-63
2023/05/22 02:11:02;;;;;;;14.70;9.40;;;;;;;19.22;58.41;101377.31;6192332;23;20025;-63
2023/05/22 02:13:30;;;;;;;13.80;9.95;;;;;;;19.19;58.29;101382.19;6190760;23;20028;-63
2023/05/22 02:15:59;;;;;;;14.90;9.63;;;;;;;19.14;58.23;101382.19;6189876;23;20025;-63
2023/05/22 02:18:28;;;;;;;12.98;9.07;;;;;;;19.12;58.74;101386.25;6191251;23;20128;-61
2023/05/22 02:20:56;;;;;;;17.48;9.32;;;;;;;19.10;58.82;101391.16;6189570;23;20025;-62
2023/05/22 02:23:24;;;;;;;17.23;10.50;;;;;;;19.07;58.96;101387.06;6191831;23;20052;-62
2023/05/22 02:25:54;;;;;;;14.57;9.40;;;;;;;19.03;58.78;101383.25;6191172;23;20083;-62
2023/05/22 02:28:22;;;;;;;18.17;9.93;;;;;;;19.02;59.08;101378.06;6189378;23;20031;-63
2023/05/22 02:30:50;;;;;;;16.50;11.18;;;;;;;18.99;58.93;101378.59;6188545;23;20036;-62
2023/05/22 02:33:19;;;;;;;17.05;9.27;;;;;;;18.97;59.09;101370.69;6190653;23;20025;-63
2023/05/22 02:35:47;;;;;;;14.02;9.32;;;;;;;18.96;58.63;101368.22;6189313;23;20095;-63
2023/05/22 02:38:15;;;;;;;11.75;8.45;;;;;;;18.96;58.46;101370.94;6190493;23;20029;-63
2023/05/22 02:40:42;;;;;;;13.90;9.32;;;;;;;18.95;58.48;101363.88;6189918;23;20025;-63
2023/05/22 02:43:10;;;;;;;13.75;8.52;;;;;;;18.95;58.43;101364.69;6189711;23;20025;-63
2023/05/22 02:45:38;;;;;;;12.32;8.30;;;;;;;18.94;58.31;101364.94;6188270;23;20395;-63
2023/05/22 02:48:06;;;;;;;13.52;8.05;;;;;;;18.94;58.46;101373.13;6190695;23;20025;-63
2023/05/22 02:50:35;;;;;;;16.67;8.60;;;;;;;18.92;58.27;101364.41;6191422;23;20029;-63
2023/05/22 02:53:03;;;;;;;13.55;9.10;;;;;;;18.91;58.55;101365.47;6191793;23;20029;-65
2023/05/22 02:55:31;;;;;;;16.30;8.80;;;;;;;18.90;58.32;101369.28;6191346;23;20443;-64
2023/05/22 02:57:59;;;;;;;18.20;8.55;;;;;;;18.88;58.37;101364.09;6190363;23;21636;-64
2023/05/22 03:00:27;;;;;;;15.23;9.05;;;;;;;18.86;58.42;101366.28;6191448;23;20028;-64
2023/05/22 03:02:54;;;;;;;17.65;9.85;;;;;;;18.82;58.55;101357.81;6191696;23;20048;-63
2023/05/22 03:05:23;;;;;;;13.25;8.32;;;;;;;18.82;58.55;101365.97;6193474;23;20020;-65
2023/05/22 03:07:52;;;;;;;17.55;10.27;;;;;;;18.80;58.61;101364.59;6193813;23;20025;-64
2023/05/22 03:10:20;;;;;;;13.90;9.05;;;;;;;18.79;58.27;101363.78;6192101;23;20089;-64
2023/05/22 03:12:47;;;;;;;15.38;7.88;;;;;;;18.77;58.40;101363.22;6192707;23;20079;-65
2023/05/22 03:15:16;;;;;;;12.73;7.93;;;;;;;18.77;58.40;101359.69;6193174;23;20048;-64
2023/05/22 03:17:43;;;;;;;14.27;8.05;;;;;;;18.76;58.22;101352.59;6194541;23;20103;-64
2023/05/22 03:20:15;;;;;;;13.32;7.85;;;;;;;18.76;58.06;101347.16;6194168;23;20025;-63
2023/05/22 03:22:44;;;;;;;13.75;8.05;;;;;;;18.74;58.08;101347.41;6194720;23;20077;-64
2023/05/22 03:25:13;;;;;;;14.68;9.90;;;;;;;18.74;58.18;101361.03;6195091;23;20021;-63
2023/05/22 03:27:41;;;;;;;13.63;8.02;;;;;;;18.73;58.13;101356.66;6193955;23;20087;-63
2023/05/22 03:30:09;;;;;;;17.83;8.98;;;;;;;18.70;58.05;101349.03;6194116;23;20048;-64
2023/05/22 03:32:37;;;;;;;13.63;8.90;;;;;;;18.68;58.50;101351.19;6194303;23;20029;-63
2023/05/22 03:35:06;;;;;;;13.15;8.65;;;;;;;18.65;58.35;101351.72;6194306;23;20128;-63
2023/05/22 03:37:34;;;;;;;16.30;8.68;;;;;;;18.64;58.33;101355.53;6192416;23;20056;-63
2023/05/22 03:40:03;;;;;;;17.95;9.75;;;;;;;18.63;58.08;101339.47;6194342;23;20033;-64
2023/05/22 03:42:32;;;;;;;21.13;9.80;;;;;;;18.61;58.41;101336.19;6193705;23;20036;-63
2023/05/22 03:45:00;;;;;;;14.80;9.40;;;;;;;18.57;58.84;101346.75;6192849;23;20037;-63
2023/05/22 03:47:28;;;;;;;17.02;10.20;;;;;;;18.55;58.75;101343.47;6193973;23;20021;-63
2023/05/22 03:49:56;;;;;;;15.75;9.90;;;;;;;18.52;59.02;101342.09;6194099;23;20025;-63
2023/05/22 03:52:23;;;;;;;14.02;8.60;;;;;;;18.51;58.75;101345.88;6192850;23;20025;-63
2023/05/22 03:54:52;;;;;;;16.15;9.93;;;;;;;18.51;58.53;101342.34;6192868;23;20489;-63
2023/05/22 03:57:20;;;;;;;17.77;8.30;;;;;;;18.50;58.67;101338.81;6192458;23;20025;-63
2023/05/22 03:59:49;;;;;;;18.45;9.07;;;;;;;18.52;58.35;101350.25;6191741;23;20028;-64
2023/05/22 04:02:17;;;;;;;15.18;8.48;;;;;;;18.51;57.96;101350.50;6192640;23;20025;-63
2023/05/22 04:04:45;;;;;;;14.95;9.45;;;;;;;18.48;58.56;101348.31;6192409;23;20055;-64
2023/05/22 04:07:13;;;;;;;17.50;9.68;;;;;;;18.41;58.73;101336.84;6193687;23;20095;-64
2023/05/22 04:09:41;;;;;;;22.85;9.80;;;;;;;18.43;58.47;101349.09;6193678;23;20021;-64
2023/05/22 04:12:10;;;;;;;20.92;10.23;;;;;;;18.43;58.61;101346.38;6192616;23;20465;-63
2023/05/22 04:14:37;;;;;;;11.82;8.38;;;;;;;18.44;58.35;101352.63;6191693;23;20061;-63
2023/05/22 04:17:06;;;;;;;16.83;8.75;;;;;;;18.42;58.41;101354.81;6193211;23;20025;-63
2023/05/22 04:19:35;;;;;;;17.77;8.98;;;;;;;18.39;58.49;101353.44;6192661;23;20025;-63
2023/05/22 04:22:03;;;;;;;13.65;10.13;;;;;;;18.40;58.70;101348.81;6192186;23;20095;-63
2023/05/22 04:24:30;;;;;;;18.65;10.00;;;;;;;18.38;58.44;101350.97;6192568;23;20076;-63
2023/05/22 04:26:58;;;;;;;14.00;8.55;;;;;;;18.37;58.61;101349.31;6191507;23;20040;-62
2023/05/22 04:29:27;;;;;;;24.67;10.95;;;;;;;18.35;58.59;101356.94;6191562;23;20033;-62
2023/05/22 04:31:55;;;;;;;19.30;10.98;;;;;;;18.33;58.71;101365.34;6191996;23;20029;-64
2023/05/22 04:34:24;;;;;;;19.48;9.88;;;;;;;18.33;58.76;101367.25;6192508;23;20025;-63
2023/05/22 04:36:52;;;;;;;17.30;10.43;;;;;;;18.31;58.74;101364.78;6193440;23;20095;-64
2023/05/22 04:39:19;;;;;;;15.95;11.07;;;;;;;18.29;58.84;101369.69;6192402;23;20025;-65
2023/05/22 04:41:47;;;;;;;20.88;11.35;;;;;;;18.26;59.00;101374.81;6191338;23;20564;-64
2023/05/22 04:44:15;;;;;;;23.42;11.50;;;;;;;18.25;58.83;101379.44;6190261;23;20485;-62
2023/05/22 04:46:43;;;;;;;22.17;12.10;;;;;;;18.23;58.66;101375.34;6191873;23;20509;-62
2023/05/22 04:49:11;;;;;;;20.75;12.07;;;;;;;18.21;59.06;101375.59;6192558;23;20021;-62
2023/05/22 04:51:40;;;;;;;18.88;12.50;;;;;;;18.18;59.14;101370.69;6192199;23;20095;-64
2023/05/22 04:54:08;;;;;;;22.27;13.38;;;;;;;18.17;59.15;101379.91;6190711;23;20040;-64
2023/05/22 04:56:36;;;;;;;21.40;13.45;;;;;;;18.14;59.34;101386.69;6189819;23;20060;-63
2023/05/22 04:59:07;;;;;;;21.48;11.77;;;;;;;18.13;59.32;101379.63;6190829;23;20028;-64
2023/05/22 05:01:36;;;;;;;24.58;13.77;;;;;;;18.13;59.29;101384.22;6189571;23;20056;-63
2023/05/22 05:04:04;;;;;;;23.30;14.32;;;;;;;18.10;59.48;101377.41;6190004;23;20021;-63
2023/05/22 05:06:33;;;;;;;21.75;12.98;;;;;;;18.10;59.03;101388.28;6190946;23;20029;-63
2023/05/22 05:09:02;;;;;;;23.77;13.55;;;;;;;18.10;59.22;101391.00;6190411;23;20052;-62
2023/05/22 05:11:30;;;;;;;19.15;12.10;;;;;;;18.10;58.96;101392.91;6189223;23;20026;-64
2023/05/22 05:13:58;;;;;;;25.17;13.07;;;;;;;18.09;59.13;101394.00;6189713;23;20029;-68
2023/05/22 05:16:26;;;;;;;21.13;11.77;;;;;;;18.09;59.06;101402.97;6188507;23;20079;-63
2023/05/22 05:18:54;;;;;;;22.52;11.80;;;;;;;18.10;58.91;101404.63;6189468;23;20399;-61
2023/05/22 05:21:22;;;;;;;25.10;13.85;;;;;;;18.09;58.95;101394.00;6190285;23;20486;-63
2023/05/22 05:23:50;;;;;;;21.33;13.05;;;;;;;18.09;59.07;101404.88;6190260;23;20025;-65
2023/05/22 05:26:22;;;;;;;22.48;12.93;;;;;;;18.08;58.82;101403.22;6186076;23;20049;-64
2023/05/22 05:28:50;;;;;;;26.63;13.73;;;;;;;18.06;59.05;101406.22;6186642;23;20052;-63
2023/05/22 05:31:19;;;;;;;21.65;13.48;;;;;;;18.05;59.24;101407.28;6187365;23;20055;-64
2023/05/22 05:33:47;;;;;;;24.80;13.15;;;;;;;18.05;58.88;101401.03;6187758;23;20029;-63
2023/05/22 05:36:15;;;;;;;24.45;12.80;;;;;;;18.05;58.98;101401.03;6187213;23;20033;-63
2023/05/22 05:38:43;;;;;;;24.88;14.07;;;;;;;18.03;58.93;101401.28;6187704;23;20459;-63
2023/05/22 05:41:11;;;;;;;20.83;12.57;;;;;;;18.03;59.02;101406.72;6187979;23;20029;-63
2023/05/22 05:43:40;;;;;;;24.48;12.40;;;;;;;18.03;59.03;101405.91;6187487;23;20029;-65
2023/05/22 05:46:08;;;;;;;21.40;12.65;;;;;;;18.02;59.02;101402.38;6187374;23;20029;-66
2023/05/22 05:48:36;;;;;;;23.45;13.00;;;;;;;18.00;59.04;101403.69;6188944;23;22124;-64
2023/05/22 05:51:04;;;;;;;25.63;14.48;;;;;;;18.01;58.92;101397.19;6185367;23;20076;-64
2023/05/22 05:53:32;;;;;;;24.40;12.63;;;;;;;18.01;58.79;101398.00;6188257;23;20036;-64
2023/05/22 05:56:00;;;;;;;24.83;14.02;;;;;;;17.99;59.07;101402.88;6189395;23;20412;-64
2023/05/22 05:58:27;;;;;;;26.00;13.02;;;;;;;18.00;58.89;101403.69;6188867;23;20025;-65
2023/05/22 06:00:57;;;;;;;21.38;13.07;;;;;;;17.93;59.00;101393.03;6187800;23;20029;-61
2023/05/22 06:03:25;;;;;;;25.35;15.18;;;;;;;18.00;58.88;101409.13;6188438;23;20056;-63
2023/05/22 06:05:53;;;;;;;25.23;13.10;;;;;;;18.00;58.92;101407.25;6187516;23;20375;-63
2023/05/22 06:08:21;;;;;;;24.70;13.45;;;;;;;17.99;58.77;101410.22;6186347;23;20053;-63
2023/05/22 06:10:49;;;;;;;28.00;14.55;;;;;;;17.98;58.94;101417.56;6187625;23;20029;-67
2023/05/22 06:13:17;;;;;;;32.20;16.63;;;;;;;17.96;59.46;101408.84;6186227;23;20029;-62
2023/05/22 06:15:44;;;;;;;35.28;20.13;;;;;;;17.92;60.12;101420.47;6186816;23;20107;-63
2023/05/22 06:18:13;;;;;;;30.45;17.50;;;;;;;17.92;60.00;101420.47;6187516;23;20032;-63
2023/05/22 06:20:42;;;;;;;40.05;18.90;;;;;;;17.90;59.62;101418.03;6186599;23;20625;-62
2023/05/22 06:23:09;;;;;;;32.67;16.85;;;;;;;17.87;59.71;101410.38;6186664;23;20100;-63
2023/05/22 06:25:38;;;;;;;39.40;19.05;;;;;;;17.91;59.82;101422.38;6186506;23;20025;-63
2023/05/22 06:28:06;;;;;;;33.97;19.63;;;;;;;17.91;59.88;101416.13;6187727;23;20104;-64
2023/05/22 06:30:35;;;;;;;29.63;18.05;;;;;;;17.89;59.55;101419.91;6190323;23;20399;-66
2023/05/22 06:33:07;;;;;;;29.88;18.02;;;;;;;17.90;59.94;101420.72;6193252;23;20025;-63
2023/05/22 06:35:37;;;;;;;30.38;18.95;;;;;;;17.89;59.76;101425.34;6193629;23;20048;-63
2023/05/22 06:38:04;;;;;;;36.50;18.90;;;;;;;17.88;59.77;101421.00;6194870;23;20025;-63
2023/05/22 06:40:32;;;;;;;37.55;21.73;;;;;;;17.89;60.27;101427.25;6193693;23;20028;-65
2023/05/22 06:43:01;;;;;;;38.88;20.83;;;;;;;17.87;60.42;101434.84;6193694;23;20052;-65
2023/05/22 06:45:29;;;;;;;38.40;20.40;;;;;;;17.86;60.25;101428.59;6193054;23;20039;-64
2023/05/22 06:47:57;;;;;;;36.63;20.92;;;;;;;17.85;60.26;101434.28;6194320;23;20059;-65
2023/05/22 06:50:24;;;;;;;37.05;21.77;;;;;;;17.87;60.24;101434.84;6192955;23;21693;-65
2023/05/22 06:52:54;;;;;;;31.17;19.10;;;;;;;17.86;60.22;101433.19;6192676;23;20091;-63
2023/05/22 06:55:21;;;;;;;36.45;20.85;;;;;;;17.86;60.29;101444.09;6195097;23;20105;-63
2023/05/22 06:57:49;;;;;;;37.17;20.67;;;;;;;17.86;60.27;101444.09;6193965;23;20083;-63
2023/05/22 07:00:18;;;;;;;36.72;20.67;;;;;;;17.84;60.49;101446.22;6193258;23;20041;-64
2023/05/22 07:02:48;;;;;;;35.22;21.10;;;;;;;17.86;60.20;101438.66;6194025;23;20108;-63
2023/05/22 07:05:16;;;;;;;49.22;21.30;;;;;;;17.85;60.23;101453.31;6193586;23;20473;-63
2023/05/22 07:07:45;;;;;;;35.20;19.77;;;;;;;17.87;60.12;101449.25;6193551;23;20025;-63
2023/05/22 07:10:14;;;;;;;35.40;21.65;;;;;;;17.88;60.26;101469.13;6194569;23;20487;-63
2023/05/22 07:12:42;;;;;;;40.58;21.63;;;;;;;17.88;60.01;101469.13;6193295;23;20021;-63
2023/05/22 07:15:12;;;;;;;41.33;22.08;;;;;;;17.89;60.33;101476.19;6192148;23;20029;-63
2023/05/22 07:17:40;;;;;;;37.28;19.95;;;;;;;17.90;60.09;101483.28;6194473;23;20029;-63
2023/05/22 07:20:09;;;;;;;47.00;21.95;;;;;;;17.88;60.48;101480.00;6194113;23;20091;-63
2023/05/22 07:22:37;;;;;;;46.83;24.73;;;;;;;17.88;60.75;101485.44;6193680;23;20075;-63
2023/05/22 07:25:06;;;;;;;40.88;23.52;;;;;;;17.87;61.17;101491.94;6187890;23;20029;-64
2023/05/22 07:27:35;;;;;;;38.15;22.95;;;;;;;17.85;60.82;101489.50;6188332;23;20029;-64
2023/05/22 07:30:03;;;;;;;45.67;27.05;;;;;;;17.84;61.59;101487.03;6189652;23;20029;-63
2023/05/22 07:32:31;;;;;;;47.78;24.85;;;;;;;17.83;61.44;101483.47;6189591;23;20029;-64
2023/05/22 07:34:59;;;;;;;39.08;22.73;;;;;;;17.78;61.20;101466.28;6188823;23;20526;-64
2023/05/22 07:37:27;;;;;;;41.60;23.42;;;;;;;17.85;61.09;101485.94;6187802;23;20028;-64
2023/05/22 07:39:55;;;;;;;48.97;26.83;;;;;;;17.84;61.39;101487.84;6187884;23;20052;-64
2023/05/22 07:42:22;;;;;;;41.92;27.02;;;;;;;17.84;61.44;101489.75;6186980;23;20032;-64
2023/05/22 07:44:52;;;;;;;43.75;26.67;;;;;;;17.84;61.53;101493.28;6188238;23;20020;-65
2023/05/22 07:47:19;;;;;;;48.28;26.95;;;;;;;17.84;61.94;101493.28;6192283;23;20025;-63
2023/05/22 07:49:47;;;;;;;47.92;26.83;;;;;;;17.83;61.99;101490.81;6192675;23;20025;-63
2023/05/22 07:52:15;;;;;;;48.85;27.75;;;;;;;17.83;61.90;101490.81;6190899;23;20470;-63
2023/05/22 07:54:43;;;;;;;48.85;28.50;;;;;;;17.84;61.76;101492.47;6190101;23;20025;-63
2023/05/22 07:57:12;;;;;;;45.15;26.30;;;;;;;17.83;61.75;101499.78;6190020;23;20037;-63
2023/05/22 07:59:42;;;;;;;45.63;24.88;;;;;;;17.85;61.40;101494.94;6190373;23;20025;-63
2023/05/22 08:02:13;;;;;;;53.13;28.80;;;;;;;17.85;61.57;101494.94;6191112;23;20028;-63
2023/05/22 08:04:41;;;;;;;51.38;26.42;;;;;;;17.87;61.56;101495.50;6191617;23;20021;-64
2023/05/22 08:07:09;;;;;;;49.63;28.02;;;;;;;17.86;61.74;101490.31;6190742;23;20033;-64
2023/05/22 08:09:36;;;;;;;46.35;27.25;;;;;;;17.85;61.65;101494.94;6191793;23;20387;-64
2023/05/22 08:12:05;;;;;;;46.00;24.55;;;;;;;17.86;61.56;101490.31;6190670;23;20029;-64
2023/05/22 08:14:34;;;;;;;51.50;28.60;;;;;;;17.86;61.68;101485.69;6190204;23;20136;-64
2023/05/22 08:17:03;;;;;;;46.25;25.33;;;;;;;17.87;61.48;101489.22;6191426;23;20025;-64
2023/05/22 08:19:32;;;;;;;48.05;29.02;;;;;;;17.79;61.89;101470.66;6192728;23;20028;-64
2023/05/22 08:22:00;;;;;;;54.10;29.58;;;;;;;17.87;61.93;101483.78;6191704;23;20029;-63
2023/05/22 08:24:29;;;;;;;52.47;29.77;;;;;;;17.88;61.33;101480.00;6191897;23;20124;-64
2023/05/22 08:26:59;;;;;;;56.38;28.88;;;;;;;17.88;62.04;101483.53;6191211;23;20029;-63
2023/05/22 08:29:28;;;;;;;59.00;32.15;;;;;;;17.88;61.99;101488.97;6192215;23;20028;-63
2023/05/22 08:31:56;;;;;;;57.38;33.90;;;;;;;17.87;62.25;101487.34;6193211;23;20025;-63
2023/05/22 08:34:25;;;;;;;66.22;36.72;;;;;;;17.86;62.51;101484.88;6191805;23;20025;-63
2023/05/22 08:36:54;;;;;;;59.10;33.55;;;;;;;17.85;63.01;101497.66;6192484;23;20039;-63
2023/05/22 08:39:22;;;;;;;67.70;36.60;;;;;;;17.85;62.80;101492.22;6193161;23;20025;-63
2023/05/22 08:41:50;;;;;;;62.55;35.78;;;;;;;17.85;62.76;101492.22;6192005;23;20024;-63
2023/05/22 08:44:18;;;;;;;61.05;35.38;;;;;;;17.86;62.59;101487.59;6191617;23;20052;-63
2023/05/22 08:46:48;;;;;;;58.60;34.42;;;;;;;17.87;62.50;101489.22;6192218;23;20083;-63
2023/05/22 08:49:17;;;;;;;65.45;34.00;;;;;;;17.88;62.50;101480.81;6193335;23;20029;-63
2023/05/22 08:51:48;;;;;;;59.20;35.28;;;;;;;17.90;62.45;101488.72;6193032;23;20082;-64
2023/05/22 08:54:21;;;;;;;59.83;33.50;;;;;;;17.91;62.71;101493.09;6191736;23;20028;-63
2023/05/22 08:56:49;;;;;;;64.20;37.22;;;;;;;17.92;62.71;101500.16;6191137;23;20036;-63
2023/05/22 08:59:24;;;;;;;60.55;35.83;;;;;;;17.92;62.70;101496.63;6191001;23;20385;-63
2023/05/22 09:01:53;;;;;;;60.33;34.78;;;;;;;17.91;62.86;101490.38;6192008;23;20029;-63
2023/05/22 09:04:22;;;;;;;60.65;35.78;;;;;;;17.92;62.91;101493.91;6191734;23;20546;-63
2023/05/22 09:06:51;;;;;;;58.20;33.83;;;;;;;17.92;62.96;101492.00;6190636;23;20040;-63
2023/05/22 09:09:20;;;;;;;61.38;35.05;;;;;;;17.93;62.65;101488.22;6191153;23;20043;-63
2023/05/22 09:11:48;;;;;;;60.30;36.40;;;;;;;17.94;62.68;101492.56;6191363;23;20029;-63
2023/05/22 09:14:16;;;;;;;61.55;34.53;;;;;;;17.95;62.55;101496.94;6190452;23;20025;-63
2023/05/22 09:16:45;;;;;;;65.15;36.10;;;;;;;17.99;62.74;101494.53;6191846;23;20028;-63
2023/05/22 09:19:13;;;;;;;60.00;34.97;;;;;;;17.99;62.57;101492.63;6192768;23;20051;-63
2023/05/22 09:21:43;;;;;;;63.55;37.70;;;;;;;18.00;62.64;101496.16;6193159;23;20093;-63
2023/05/22 09:24:11;;;;;;;63.03;36.78;;;;;;;18.00;62.91;101488.84;6192747;23;20027;-63
2023/05/22 09:26:41;;;;;;;57.55;36.00;;;;;;;18.00;63.29;101482.56;6192709;23;20029;-63
2023/05/22 09:29:09;;;;;;;57.67;33.67;;;;;;;18.01;62.52;101482.31;6189896;23;20100;-63
2023/05/22 09:31:42;;;;;;;58.38;34.58;;;;;;;18.03;62.90;101484.78;6191406;23;20025;-63
2023/05/22 09:34:12;;;;;;;57.67;33.47;;;;;;;18.04;62.70;101481.81;6189266;23;20031;-63
2023/05/22 09:36:41;;;;;;;58.05;35.67;;;;;;;18.05;63.19;101480.72;6189218;23;20025;-63
2023/05/22 09:39:09;;;;;;;56.80;35.13;;;;;;;18.04;63.07;101470.94;6189450;23;20056;-63
2023/05/22 09:41:39;;;;;;;51.28;32.17;;;;;;;18.08;62.45;101476.69;6187806;23;20021;-63
2023/05/22 09:44:15;;;;;;;51.30;32.72;;;;;;;18.09;62.63;101481.84;6188313;23;20439;-64
2023/05/22 09:46:45;;;;;;;55.63;34.67;;;;;;;18.12;62.97;101478.63;6190248;23;20107;-64
2023/05/22 09:49:15;;;;;;;56.25;34.67;;;;;;;18.13;63.03;101476.72;6190064;23;20055;-63
2023/05/22 09:51:46;;;;;;;57.17;34.60;;;;;;;18.13;63.44;101480.28;6190731;23;20029;-63
2023/05/22 09:54:16;;;;;;;59.65;35.42;;;;;;;18.14;63.19;101479.19;6190108;23;20124;-64
2023/05/22 09:56:48;;;;;;;61.42;37.15;;;;;;;18.16;63.63;101470.78;6188894;23;20357;-63
2023/05/22 09:59:22;;;;;;;53.67;33.83;;;;;;;18.11;63.68;101466.09;6188665;23;20084;-65
2023/05/22 10:01:50;;;;;;;56.17;35.50;;;;;;;18.16;63.70;101473.50;6189895;23;20079;-63
2023/05/22 10:04:21;;;;;;;58.92;35.15;;;;;;;18.11;64.00;101462.56;6189778;23;20025;-63
2023/05/22 10:06:51;;;;;;;60.50;35.97;;;;;;;18.19;63.81;101472.97;6190663;23;20029;-65
2023/05/22 10:09:23;;;;;;;52.42;33.35;;;;;;;18.21;63.35;101478.97;6190410;23;20083;-65
2023/05/22 10:11:54;;;;;;;53.13;33.50;;;;;;;18.19;63.64;101471.09;6189563;23;20029;-63
2023/05/22 10:14:24;;;;;;;50.40;32.40;;;;;;;18.23;63.53;101482.28;6188704;23;20047;-64
2023/05/22 10:16:55;;;;;;;55.67;34.22;;;;;;;18.26;63.85;101478.22;6190914;23;20365;-64
2023/05/22 10:19:26;;;;;;;48.65;32.47;;;;;;;18.28;63.66;101471.44;6190278;23;20104;-63
2023/05/22 10:21:56;;;;;;;44.30;31.05;;;;;;;18.28;63.19;101471.44;6191239;23;20029;-63
2023/05/22 10:24:24;;;;;;;46.10;31.13;;;;;;;18.31;63.27;101467.38;6189320;23;20087;-63
2023/05/22 10:26:54;;;;;;;45.47;30.95;;;;;;;18.33;63.57;101470.66;6190899;23;20088;-63
2023/05/22 10:29:41;;;;;;;48.13;31.27;;;;;;;18.34;63.51;101462.25;6190301;23;20049;-63
2023/05/22 10:32:17;;;;;;;44.63;30.25;;;;;;;18.36;63.50;101464.72;6189307;23;20087;-64
2023/05/22 10:34:54;;;;;;;48.17;30.02;;;;;;;18.37;63.61;101469.06;6188264;23;20035;-64
2023/05/22 10:37:41;;;;;;;40.67;27.88;;;;;;;18.39;63.15;101465.00;6189555;23;20052;-64
2023/05/22 10:40:11;;;;;;;46.17;29.90;;;;;;;18.40;63.21;101455.75;6189947;23;20024;-64
2023/05/22 10:42:39;;;;;;;40.90;27.85;;;;;;;18.44;63.26;101459.59;6190625;23;20033;-66
2023/05/22 10:45:08;;;;;;;43.72;26.20;;;;;;;18.46;63.14;101459.34;6188861;23;20024;-65
2023/05/22 10:47:37;;;;;;;47.05;27.15;;;;;;;18.49;63.59;101462.38;6189368;23;20708;-64
2023/05/22 10:50:08;;;;;;;45.15;26.95;;;;;;;18.54;62.99;101453.44;6192168;23;20025;-65
2023/05/22 10:52:37;;;;;;;39.72;26.83;;;;;;;18.54;63.24;101456.97;6192545;23;20063;-63
2023/05/22 10:55:09;;;;;;;39.40;24.50;;;;;;;18.57;63.42;101454.81;6191511;23;20024;-63
2023/05/22 10:57:38;;;;;;;41.10;26.13;;;;;;;18.57;63.41;101443.91;6189568;23;20031;-63
2023/05/22 11:00:09;;;;;;;37.38;26.90;;;;;;;18.64;63.84;101455.44;6191775;23;20113;-64
2023/05/22 11:02:42;;;;;;;39.03;26.60;;;;;;;18.67;63.28;101455.75;6191433;23;20055;-63
2023/05/22 11:05:34;;;;;;;35.05;24.17;;;;;;;18.70;63.43;101448.97;6188994;23;20063;-64
2023/05/22 11:08:12;;;;;;;36.13;21.40;;;;;;;18.81;63.56;101450.66;6166961;23;20525;-64
2023/05/22 11:10:53;;;;;;;34.95;21.73;;;;;;;18.83;63.70;101451.22;6190825;23;20079;-64
2023/05/22 11:13:20;;;;;;;31.38;23.73;;;;;;;18.85;64.12;101441.72;6189468;23;20091;-64
2023/05/22 11:15:48;;;;;;;41.08;26.15;;;;;;;18.88;64.89;101434.91;6188699;23;20151;-65
2023/05/22 11:18:18;;;;;;;40.03;24.00;;;;;;;18.92;63.88;101437.94;6190339;23;20060;-65
2023/05/22 11:20:46;;;;;;;34.28;23.17;;;;;;;18.97;63.97;101440.69;6188055;23;20080;-65
2023/05/22 11:23:15;;;;;;;35.53;21.83;;;;;;;19.02;63.67;101438.81;6190180;23;20056;-65